Time;durP1;ratioP1;P1;durP2;ratioP2;P2;SDS_P1;SDS_P2;PMS_P1;PMS_P2;Temp;Humidity;BMP_temperature;BMP_pressure;BME280_temperature;BME280_humidity;BME280_pressure;Samples;Min_cycle;Max_cycle;Signal;HPM_P1;HPM_P2
2024/04/10 00:00:20;;;;;;;1.30;1.20;;;;;;;20.19;56.90;98078.88;5398448;26;20232;-28
2024/04/10 00:02:47;;;;;;;1.00;1.00;;;;;;;20.18;56.44;98075.44;5398522;26;20668;-32
2024/04/10 00:05:14;;;;;;;1.30;1.20;;;;;;;20.21;56.82;98088.34;5399482;26;20223;-26
2024/04/10 00:07:41;;;;;;;1.70;1.23;;;;;;;20.22;56.45;98090.06;5402561;26;20228;-30
2024/04/10 00:10:08;;;;;;;1.50;1.40;;;;;;;20.24;56.38;98090.13;5414896;26;20732;-27
2024/04/10 00:12:35;;;;;;;1.23;1.17;;;;;;;20.25;56.65;98105.50;5402645;26;20243;-28
2024/04/10 00:15:02;;;;;;;1.10;1.10;;;;;;;20.26;55.95;98112.38;5392884;26;20269;-27
2024/04/10 00:17:28;;;;;;;1.50;1.40;;;;;;;20.26;56.42;98102.19;5401112;26;20273;-27
2024/04/10 00:19:55;;;;;;;1.40;1.30;;;;;;;20.25;56.07;98105.50;5415431;26;20274;-28
2024/04/10 00:22:23;;;;;;;1.40;1.30;;;;;;;20.21;56.20;98105.31;5397903;26;20231;-27
2024/04/10 00:24:53;;;;;;;1.47;1.37;;;;;;;20.18;56.56;98105.19;5407843;26;20611;-27
2024/04/10 00:27:21;;;;;;;1.07;1.07;;;;;;;20.15;56.33;98095.72;5405045;26;20775;-27
2024/04/10 00:29:50;;;;;;;1.17;1.10;;;;;;;20.16;56.92;98094.06;5403454;26;20277;-29
2024/04/10 00:32:17;;;;;;;1.40;1.30;;;;;;;20.16;56.44;98094.06;5403087;26;21934;-30
2024/04/10 00:34:44;;;;;;;1.40;1.30;;;;;;;20.18;56.93;98094.97;5408255;26;20273;-27
2024/04/10 00:37:10;;;;;;;1.30;1.20;;;;;;;20.19;56.85;98096.75;5404247;26;20332;-29
2024/04/10 00:39:37;;;;;;;1.30;1.20;;;;;;;20.22;56.62;98096.88;5388650;26;20232;-28
2024/04/10 00:42:04;;;;;;;1.47;1.37;;;;;;;20.22;56.15;98096.88;5414820;26;20257;-26
2024/04/10 00:44:31;;;;;;;1.30;1.20;;;;;;;20.23;56.51;98101.16;5391964;26;20236;-28
2024/04/10 00:46:57;;;;;;;1.30;1.20;;;;;;;20.24;56.62;98095.25;5399093;26;20274;-28
2024/04/10 00:49:25;;;;;;;1.27;1.20;;;;;;;20.25;56.35;98095.31;5414866;26;20312;-26
2024/04/10 00:51:52;;;;;;;1.20;1.10;;;;;;;20.25;56.32;98086.78;5401939;26;20246;-27
2024/04/10 00:54:18;;;;;;;1.30;1.20;;;;;;;20.27;56.15;98090.25;5396780;26;20266;-27
2024/04/10 00:56:45;;;;;;;1.00;1.00;;;;;;;20.22;56.59;98079.84;5381603;26;20235;-26
2024/04/10 00:59:11;;;;;;;1.10;1.10;;;;;;;20.11;56.34;98075.97;5391097;26;20266;-31
2024/04/10 01:01:38;;;;;;;1.10;1.10;;;;;;;20.14;56.39;98076.13;5410334;26;20236;-27
2024/04/10 01:04:05;;;;;;;1.30;1.20;;;;;;;20.14;56.25;98081.22;5378906;26;20255;-28
2024/04/10 01:06:33;;;;;;;1.27;1.20;;;;;;;20.14;56.63;98090.56;5393376;26;20244;-28
2024/04/10 01:08:59;;;;;;;1.33;1.23;;;;;;;20.14;56.84;98088.00;5388047;26;20235;-27
2024/04/10 01:11:26;;;;;;;1.47;1.37;;;;;;;20.16;56.47;98089.78;5401584;26;20234;-27
2024/04/10 01:13:53;;;;;;;1.40;1.30;;;;;;;20.18;56.56;98095.84;5407413;26;20479;-26
2024/04/10 01:16:20;;;;;;;1.20;1.10;;;;;;;20.22;56.62;98104.53;5415050;26;20282;-28
2024/04/10 01:18:46;;;;;;;1.27;1.17;;;;;;;20.22;56.48;98105.38;5408273;26;20236;-29
2024/04/10 01:21:13;;;;;;;1.23;1.17;;;;;;;20.23;56.47;98109.69;5399716;26;20332;-26
2024/04/10 01:23:40;;;;;;;1.10;1.10;;;;;;;20.24;56.18;98108.88;5405214;26;20230;-30
2024/04/10 01:26:07;;;;;;;1.20;1.10;;;;;;;20.26;56.42;98116.59;5393025;26;20270;-27
2024/04/10 01:28:34;;;;;;;1.20;1.10;;;;;;;20.27;55.85;98113.22;5408544;26;20234;-27
2024/04/10 01:31:00;;;;;;;1.10;1.10;;;;;;;20.27;55.80;98120.88;5401913;26;20236;-27
2024/04/10 01:33:27;;;;;;;1.63;1.30;;;;;;;20.21;56.23;98123.19;5415075;26;20239;-32
2024/04/10 01:35:54;;;;;;;1.30;1.20;;;;;;;20.18;56.16;98123.94;5416067;26;20265;-27
2024/04/10 01:38:23;;;;;;;1.20;1.10;;;;;;;20.09;56.69;98112.41;5392948;26;20310;-27
2024/04/10 01:40:50;;;;;;;1.40;1.30;;;;;;;20.15;57.13;98128.91;5395057;26;20227;-27
2024/04/10 01:43:17;;;;;;;1.20;1.20;;;;;;;20.15;56.56;98128.00;5398172;26;20284;-32
2024/04/10 01:45:44;;;;;;;1.10;1.10;;;;;;;20.15;56.75;98120.34;5408854;26;20234;-27
2024/04/10 01:48:11;;;;;;;1.47;1.20;;;;;;;20.17;56.25;98122.19;5394788;26;20232;-32
2024/04/10 01:50:38;;;;;;;1.20;1.20;;;;;;;20.19;56.07;98124.81;5390496;26;20242;-28
2024/04/10 01:53:05;;;;;;;1.47;1.20;;;;;;;20.20;55.97;98124.00;5403200;26;20341;-27
2024/04/10 01:55:32;;;;;;;1.10;1.10;;;;;;;20.14;56.18;98104.19;5396674;26;20622;-28
2024/04/10 01:57:58;;;;;;;1.30;1.20;;;;;;;20.22;56.02;98112.19;5408217;26;20231;-27
2024/04/10 02:00:25;;;;;;;1.27;1.17;;;;;;;20.23;56.42;98119.91;5395483;26;20279;-26
2024/04/10 02:02:52;;;;;;;1.30;1.20;;;;;;;20.23;55.97;98119.91;5402240;26;20343;-26
2024/04/10 02:05:19;;;;;;;1.30;1.20;;;;;;;20.23;55.81;98129.22;5385770;26;20248;-26
2024/04/10 02:07:46;;;;;;;1.10;1.10;;;;;;;20.16;56.03;98130.63;5393347;26;20238;-39
2024/04/10 02:10:13;;;;;;;1.17;1.10;;;;;;;20.17;56.16;98137.50;5414214;26;20675;-30
2024/04/10 02:12:40;;;;;;;1.40;1.30;;;;;;;20.09;56.37;98131.13;5412547;26;20610;-28
2024/04/10 02:15:06;;;;;;;1.10;1.10;;;;;;;20.14;56.37;98151.78;5400760;26;20223;-35
2024/04/10 02:17:33;;;;;;;1.33;1.27;;;;;;;20.12;56.57;98145.69;5408556;26;20231;-28
2024/04/10 02:20:00;;;;;;;1.50;1.40;;;;;;;20.13;56.58;98148.34;5401458;26;20227;-27
2024/04/10 02:22:27;;;;;;;1.30;1.10;;;;;;;20.13;56.77;98147.50;5396908;26;20755;-29
2024/04/10 02:24:54;;;;;;;0.90;0.90;;;;;;;20.16;56.72;98147.63;5392812;26;20246;-26
2024/04/10 02:27:21;;;;;;;1.23;1.17;;;;;;;20.17;56.71;98139.16;5399049;26;20238;-27
2024/04/10 02:29:48;;;;;;;1.30;1.20;;;;;;;20.16;56.30;98143.38;5395879;26;20227;-29
2024/04/10 02:32:15;;;;;;;1.27;1.23;;;;;;;20.20;56.40;98141.84;5385709;26;20247;-26
2024/04/10 02:34:42;;;;;;;1.30;1.20;;;;;;;20.21;56.41;98138.50;5386263;26;20583;-27
2024/04/10 02:37:08;;;;;;;1.20;1.10;;;;;;;20.21;56.23;98144.47;5393418;26;20290;-26
2024/04/10 02:39:36;;;;;;;1.30;1.20;;;;;;;20.22;56.24;98151.31;5397318;26;20236;-31
2024/04/10 02:42:03;;;;;;;1.03;1.03;;;;;;;20.23;56.06;98137.78;5399884;26;20244;-26
2024/04/10 02:44:29;;;;;;;1.10;1.10;;;;;;;20.18;55.91;98143.47;5409180;26;20268;-33
2024/04/10 02:46:56;;;;;;;1.30;1.20;;;;;;;20.14;56.71;98155.22;5394770;26;20780;-28
2024/04/10 02:49:23;;;;;;;1.07;1.07;;;;;;;20.12;56.04;98143.16;5397656;26;20265;-27
2024/04/10 02:51:50;;;;;;;1.20;1.10;;;;;;;20.11;56.58;98142.31;5401261;26;20236;-29
2024/04/10 02:54:16;;;;;;;1.00;1.00;;;;;;;20.09;56.87;98156.66;5388476;26;20219;-29
2024/04/10 02:56:43;;;;;;;1.13;1.10;;;;;;;20.12;56.30;98158.47;5400921;26;20235;-27
2024/04/10 02:59:10;;;;;;;1.30;1.30;;;;;;;20.14;56.57;98162.88;5406522;26;20234;-27
2024/04/10 03:01:38;;;;;;;1.10;1.10;;;;;;;20.16;56.45;98168.06;5388056;26;20344;-28
2024/04/10 03:04:05;;;;;;;1.07;1.07;;;;;;;20.17;55.95;98173.22;5415021;26;20273;-30
2024/04/10 03:06:33;;;;;;;1.10;1.10;;;;;;;20.18;56.18;98180.06;5404272;26;20236;-27
2024/04/10 03:09:00;;;;;;;1.40;1.30;;;;;;;20.20;56.14;98180.13;5403847;26;20302;-26
2024/04/10 03:11:27;;;;;;;1.00;1.00;;;;;;;20.22;55.89;98178.53;5408005;26;20274;-29
2024/04/10 03:13:54;;;;;;;1.40;1.30;;;;;;;20.23;55.87;98180.28;5395838;26;20609;-27
2024/04/10 03:16:20;;;;;;;1.30;1.20;;;;;;;20.23;56.31;98183.72;5393485;26;20243;-26
2024/04/10 03:18:47;;;;;;;1.20;1.20;;;;;;;20.23;55.81;98190.47;5416620;26;20337;-28
2024/04/10 03:21:14;;;;;;;1.10;1.10;;;;;;;20.16;55.93;98193.59;5403174;26;20290;-28
2024/04/10 03:23:41;;;;;;;1.17;1.17;;;;;;;20.15;56.35;98202.91;5400003;26;20230;-27
2024/04/10 03:26:09;;;;;;;1.20;1.20;;;;;;;20.13;56.38;98201.09;5408959;26;20234;-29
2024/04/10 03:28:36;;;;;;;1.07;1.07;;;;;;;20.12;56.87;98212.06;5398044;26;20277;-28
2024/04/10 03:31:06;;;;;;;1.30;1.20;;;;;;;20.12;56.77;98209.50;5396831;26;20231;-26
2024/04/10 03:33:34;;;;;;;1.10;1.10;;;;;;;20.09;56.42;98192.38;5395355;26;20654;-26
2024/04/10 03:36:01;;;;;;;1.20;1.10;;;;;;;20.11;56.62;98192.44;5407961;26;20585;-30
2024/04/10 03:38:27;;;;;;;1.37;1.27;;;;;;;20.16;56.57;98204.63;5404945;26;20777;-27
2024/04/10 03:40:54;;;;;;;1.20;1.10;;;;;;;20.18;56.21;98204.72;5412658;26;20286;-28
2024/04/10 03:43:21;;;;;;;1.30;1.20;;;;;;;20.17;56.37;98206.41;5389824;26;20236;-27
2024/04/10 03:45:49;;;;;;;1.20;1.10;;;;;;;20.19;55.92;98207.31;5403729;26;20230;-26
2024/04/10 03:48:15;;;;;;;1.40;1.27;;;;;;;20.21;56.06;98209.94;5410072;26;20247;-26
2024/04/10 03:50:43;;;;;;;1.20;1.20;;;;;;;20.23;56.07;98208.34;5408359;26;20246;-29
2024/04/10 03:53:10;;;;;;;1.30;1.20;;;;;;;20.24;55.62;98210.09;5393052;26;20301;-29
2024/04/10 03:55:38;;;;;;;1.10;1.00;;;;;;;20.20;55.69;98218.41;5386111;26;20226;-26
2024/04/10 03:58:04;;;;;;;0.90;0.90;;;;;;;20.16;56.02;98219.09;5391027;26;20608;-26
2024/04/10 04:00:31;;;;;;;1.30;1.20;;;;;;;20.13;56.63;98219.81;5400181;26;20273;-34
2024/04/10 04:02:58;;;;;;;1.00;1.00;;;;;;;20.09;56.16;98215.34;5408890;26;20849;-26
2024/04/10 04:05:25;;;;;;;1.30;1.20;;;;;;;20.10;56.83;98217.09;5397133;26;20223;-28
2024/04/10 04:07:52;;;;;;;1.23;1.13;;;;;;;20.09;56.30;98225.56;5403060;26;20247;-38
2024/04/10 04:10:18;;;;;;;1.30;1.20;;;;;;;20.13;56.69;98221.50;5402445;26;20717;-26
2024/04/10 04:12:45;;;;;;;1.23;1.13;;;;;;;20.13;56.56;98227.47;5395224;26;20797;-26
2024/04/10 04:15:12;;;;;;;1.10;1.10;;;;;;;20.16;56.23;98235.25;5408755;26;20261;-28
2024/04/10 04:17:39;;;;;;;1.30;1.20;;;;;;;20.18;55.85;98238.78;5408904;26;20250;-27
2024/04/10 04:20:08;;;;;;;1.90;1.50;;;;;;;20.21;53.49;98236.34;5402824;26;20322;-36
2024/04/10 04:22:35;;;;;;;1.93;1.77;;;;;;;20.23;53.42;98234.75;5389119;26;21383;-27
2024/04/10 04:25:01;;;;;;;4.10;1.50;;;;;;;20.23;53.58;98239.88;5406438;26;20263;-27
2024/04/10 04:27:32;;;;;;;2.50;1.50;;;;;;;20.24;54.31;98244.16;5409339;26;20269;-35
2024/04/10 04:29:59;;;;;;;1.80;1.60;;;;;;;20.24;54.44;98248.38;5408432;26;20238;-28
2024/04/10 04:32:26;;;;;;;1.80;1.70;;;;;;;20.16;55.12;98253.13;5400801;26;20239;-28
2024/04/10 04:34:53;;;;;;;1.50;1.40;;;;;;;20.13;55.27;98257.25;5414962;26;20230;-29
2024/04/10 04:37:20;;;;;;;1.40;1.30;;;;;;;20.12;54.82;98260.53;5399546;26;20347;-27
2024/04/10 04:39:47;;;;;;;1.63;1.40;;;;;;;20.12;55.21;98265.63;5409638;26;20287;-28
2024/04/10 04:42:14;;;;;;;1.67;1.50;;;;;;;20.12;55.69;98275.84;5410165;26;20238;-26
2024/04/10 04:44:41;;;;;;;1.87;1.50;;;;;;;20.14;55.77;98285.38;5397725;26;20655;-33
2024/04/10 04:47:08;;;;;;;1.87;1.30;;;;;;;20.17;55.77;98282.09;5388641;26;20239;-27
2024/04/10 04:49:35;;;;;;;1.53;1.43;;;;;;;20.17;55.46;98282.09;5394073;26;20384;-27
2024/04/10 04:52:02;;;;;;;1.30;1.20;;;;;;;20.20;55.59;98282.22;5407621;26;20247;-28
2024/04/10 04:54:29;;;;;;;3.37;1.20;;;;;;;20.22;55.60;98289.13;5410050;26;20269;-29
2024/04/10 04:56:55;;;;;;;1.47;1.33;;;;;;;20.23;55.01;98284.91;5416369;26;20843;-29
2024/04/10 04:59:22;;;;;;;1.40;1.30;;;;;;;20.24;55.40;98282.44;5398922;26;20272;-30
2024/04/10 05:01:49;;;;;;;1.50;1.40;;;;;;;20.26;55.49;98283.41;5383917;26;20232;-28
2024/04/10 05:07:02;;;;;;;1.40;1.30;;;;;;;20.24;55.34;98287.53;5405141;26;20243;-31
2024/04/10 05:09:28;;;;;;;1.40;1.30;;;;;;;20.20;55.60;98300.97;5407643;26;20234;-28
2024/04/10 05:11:55;;;;;;;1.50;1.30;;;;;;;20.17;55.30;98298.28;5398753;26;20231;-26
2024/04/10 05:14:25;;;;;;;1.37;1.27;;;;;;;20.15;55.68;98301.53;5412827;26;20272;-26
2024/04/10 05:16:52;;;;;;;3.00;1.30;;;;;;;20.14;55.79;98305.81;5403091;26;20226;-26
2024/04/10 05:19:18;;;;;;;1.20;1.20;;;;;;;20.14;55.36;98313.44;5414196;26;20278;-28
2024/04/10 05:21:45;;;;;;;1.83;1.60;;;;;;;20.19;54.39;98318.78;5400489;26;20277;-27
2024/04/10 05:24:12;;;;;;;2.10;1.83;;;;;;;20.23;52.84;98328.31;5414129;26;20281;-32
2024/04/10 05:26:38;;;;;;;2.40;2.10;;;;;;;20.24;50.91;98317.28;5406336;26;20269;-28
2024/04/10 05:29:05;;;;;;;3.73;2.20;;;;;;;20.28;50.08;98331.97;5414767;26;20238;-27
2024/04/10 05:31:32;;;;;;;2.33;2.10;;;;;;;20.25;50.38;98332.69;5405585;26;20230;-26
2024/04/10 05:33:59;;;;;;;2.47;2.27;;;;;;;20.27;51.03;98332.75;5385430;26;20726;-26
2024/04/10 05:36:25;;;;;;;2.90;2.17;;;;;;;20.26;51.70;98347.22;5401483;26;20235;-28
2024/04/10 05:38:53;;;;;;;2.83;2.00;;;;;;;20.28;51.64;98349.84;5403579;26;20260;-27
2024/04/10 05:41:20;;;;;;;2.20;2.00;;;;;;;20.27;51.55;98351.50;5392695;26;20459;-32
2024/04/10 05:43:47;;;;;;;2.60;2.20;;;;;;;20.18;50.55;98351.06;5407459;26;20243;-26
2024/04/10 05:46:14;;;;;;;2.27;1.93;;;;;;;20.13;50.22;98357.63;5404070;26;20223;-27
2024/04/10 05:48:40;;;;;;;2.97;2.30;;;;;;;20.10;50.42;98356.59;5399015;26;20228;-27
2024/04/10 05:51:09;;;;;;;2.40;2.00;;;;;;;20.06;49.93;98365.75;5403865;26;20653;-26
2024/04/10 05:53:35;;;;;;;3.50;1.90;;;;;;;20.05;50.37;98369.13;5391744;26;20742;-28
2024/04/10 05:56:06;;;;;;;2.50;2.30;;;;;;;20.10;49.15;98371.91;5393879;26;20607;-28
2024/04/10 05:58:36;;;;;;;2.40;2.20;;;;;;;20.14;48.95;98379.81;5391141;26;20236;-28
2024/04/10 06:01:07;;;;;;;2.50;2.30;;;;;;;20.15;49.86;98386.66;5394484;26;20357;-27
2024/04/10 06:03:34;;;;;;;2.30;2.10;;;;;;;20.18;49.77;98394.47;5390681;26;20236;-29
2024/04/10 06:06:15;;;;;;;2.57;2.33;;;;;;;20.18;50.28;98399.56;5415432;26;20230;-27
2024/04/10 06:08:42;;;;;;;3.30;2.30;;;;;;;20.21;50.31;98398.81;5405520;26;20327;-26
2024/04/10 06:11:09;;;;;;;2.70;2.13;;;;;;;20.20;51.32;98408.19;5398870;26;20238;-27
2024/04/10 06:13:36;;;;;;;2.70;2.00;;;;;;;20.22;51.35;98415.91;5400923;26;20234;-28
2024/04/10 06:16:04;;;;;;;2.50;2.00;;;;;;;20.22;51.15;98419.31;5395752;26;20232;-26
2024/04/10 06:18:31;;;;;;;1.97;1.87;;;;;;;20.16;51.99;98426.69;5403662;26;20232;-28
2024/04/10 06:21:00;;;;;;;2.30;2.10;;;;;;;20.12;51.26;98418.75;5406333;26;20729;-26
2024/04/10 06:23:28;;;;;;;3.17;2.10;;;;;;;20.08;51.16;98427.97;5408500;26;20992;-34
2024/04/10 06:25:55;;;;;;;6.77;2.60;;;;;;;20.01;49.47;98428.44;5403687;26;20239;-26
2024/04/10 06:28:21;;;;;;;4.60;2.67;;;;;;;20.05;48.85;98419.28;5400688;26;20247;-28
2024/04/10 06:30:58;;;;;;;5.03;2.80;;;;;;;20.08;48.43;98420.31;5407208;26;20239;-27
2024/04/10 06:33:25;;;;;;;8.13;2.90;;;;;;;20.10;48.62;98423.78;5401640;26;20231;-27
2024/04/10 06:35:51;;;;;;;4.73;2.60;;;;;;;20.14;49.09;98435.97;5416528;26;20238;-34
2024/04/10 06:38:18;;;;;;;3.63;2.43;;;;;;;20.14;50.21;98442.72;5404104;26;20227;-27
2024/04/10 06:41:12;;;;;;;3.57;2.47;;;;;;;20.16;50.63;98446.25;5389987;26;20732;-26
2024/04/10 06:43:38;;;;;;;2.37;2.17;;;;;;;20.15;50.94;98453.00;5389749;26;20870;-27
2024/04/10 06:46:07;;;;;;;2.77;2.00;;;;;;;20.15;51.24;98453.00;5398591;26;20284;-26
2024/04/10 06:48:34;;;;;;;4.73;2.13;;;;;;;20.17;50.90;98455.63;5411548;26;20226;-29
2024/04/10 06:51:02;;;;;;;5.03;2.20;;;;;;;20.16;51.59;98452.19;5398878;26;20251;-27
2024/04/10 06:53:29;;;;;;;5.53;2.27;;;;;;;20.14;51.78;98456.38;5405139;26;20230;-26
2024/04/10 06:55:57;;;;;;;8.03;2.23;;;;;;;20.08;51.93;98458.59;5408367;26;20717;-26
2024/04/10 06:58:25;;;;;;;3.27;1.90;;;;;;;20.03;51.74;98454.91;5415269;26;20231;-27
2024/04/10 07:01:03;;;;;;;2.80;1.93;;;;;;;20.04;52.41;98455.81;5406995;26;20274;-27
2024/04/10 07:03:31;;;;;;;2.30;2.10;;;;;;;20.02;52.09;98461.69;5399289;26;20240;-26
2024/04/10 07:06:04;;;;;;;2.83;1.93;;;;;;;20.04;52.66;98468.56;5412750;26;20335;-30
2024/04/10 07:08:32;;;;;;;3.90;1.90;;;;;;;20.05;52.25;98468.66;5407796;26;20227;-28
2024/04/10 07:10:59;;;;;;;2.57;2.00;;;;;;;20.08;52.27;98463.69;5412547;26;20242;-28
2024/04/10 07:15:02;;;;;;;3.20;1.80;;;;;;;20.11;52.78;98465.50;5535913;25;20645;-33
2024/04/10 07:17:30;;;;;;;2.07;1.73;;;;;;;20.11;52.96;98476.59;5508517;25;20258;-26
2024/04/10 07:19:57;;;;;;;3.60;1.70;;;;;;;20.13;52.88;98484.38;5490499;25;20267;-26
2024/04/10 07:22:24;;;;;;;3.37;1.83;;;;;;;20.14;52.73;98484.44;5499386;26;20236;-27
2024/04/10 07:24:50;;;;;;;2.30;1.80;;;;;;;20.14;52.86;98488.66;5502817;26;20770;-27
2024/04/10 07:27:17;;;;;;;2.03;1.67;;;;;;;20.15;52.83;98495.50;5490612;26;20314;-30
2024/04/10 07:29:44;;;;;;;8.40;1.97;;;;;;;20.10;52.35;98496.94;5500059;26;20220;-27
2024/04/10 07:32:11;;;;;;;1.90;1.60;;;;;;;20.08;52.49;98507.06;5495326;26;20240;-27
2024/04/10 07:34:37;;;;;;;4.13;2.03;;;;;;;20.06;52.84;98503.56;5497062;25;20231;-26
2024/04/10 07:37:04;;;;;;;1.80;1.70;;;;;;;20.06;53.29;98508.66;5508149;25;20327;-29
2024/04/10 07:39:31;;;;;;;1.90;1.70;;;;;;;20.07;53.08;98517.19;5489329;26;20831;-26
2024/04/10 07:41:57;;;;;;;3.23;1.97;;;;;;;20.08;53.75;98521.50;5480269;26;20263;-28
2024/04/10 07:44:24;;;;;;;3.60;1.80;;;;;;;20.12;53.43;98524.28;5497677;25;20271;-26
2024/04/10 07:46:51;;;;;;;2.97;2.20;;;;;;;20.13;53.78;98520.94;5493647;26;20232;-25
2024/04/10 07:49:18;;;;;;;3.43;2.40;;;;;;;20.14;53.26;98517.63;5499140;25;20666;-27
2024/04/10 07:51:46;;;;;;;5.67;2.80;;;;;;;20.17;52.73;98517.78;5474646;25;20240;-29
2024/04/10 07:54:12;;;;;;;6.53;2.37;;;;;;;20.20;52.54;98520.47;5494393;25;20227;-25
2024/04/10 07:56:39;;;;;;;4.40;2.30;;;;;;;20.23;52.82;98523.19;5477099;25;20237;-34
2024/04/10 07:59:06;;;;;;;6.10;2.20;;;;;;;20.25;51.95;98526.66;5477482;25;20229;-27
2024/04/10 08:01:33;;;;;;;3.40;2.10;;;;;;;20.28;52.08;98533.63;5476711;25;20271;-27
2024/04/10 08:04:05;;;;;;;4.40;2.50;;;;;;;20.27;51.59;98527.63;5487158;26;20277;-27
2024/04/10 08:06:36;;;;;;;2.97;2.20;;;;;;;20.23;52.45;98530.84;5471462;26;20272;-27
2024/04/10 08:09:03;;;;;;;2.67;2.10;;;;;;;20.22;52.51;98533.31;5476629;26;20829;-29
2024/04/10 08:11:30;;;;;;;3.10;2.30;;;;;;;20.23;52.64;98537.63;5506568;25;20271;-27
2024/04/10 08:13:57;;;;;;;2.33;2.07;;;;;;;20.22;53.19;98541.84;5490295;25;20236;-27
2024/04/10 08:16:24;;;;;;;5.03;2.20;;;;;;;20.22;52.76;98541.84;5490313;26;20270;-28
2024/04/10 08:18:50;;;;;;;3.60;1.93;;;;;;;20.24;53.51;98541.91;5504157;25;20842;-26
2024/04/10 08:21:18;;;;;;;3.20;2.00;;;;;;;20.25;52.96;98544.53;5480548;26;20232;-26
2024/04/10 08:23:45;;;;;;;2.17;1.77;;;;;;;20.22;53.18;98534.19;5473483;25;20568;-26
2024/04/10 08:26:16;;;;;;;3.53;1.90;;;;;;;20.27;53.34;98557.38;5481923;26;20575;-27
2024/04/10 08:28:51;;;;;;;5.43;2.00;;;;;;;20.27;53.16;98560.81;5475993;26;20267;-30
2024/04/10 08:31:27;;;;;;;3.60;1.90;;;;;;;20.28;53.60;98561.72;5478306;26;20249;-28
2024/04/10 08:33:54;;;;;;;3.03;2.10;;;;;;;20.30;49.82;98563.53;5487012;26;20734;-26
2024/04/10 08:36:21;;;;;;;3.67;2.30;;;;;;;20.31;49.96;98564.41;5466844;26;20238;-28
2024/04/10 08:38:48;;;;;;;4.43;2.57;;;;;;;20.30;50.88;98565.19;5465386;26;21026;-27
2024/04/10 08:41:16;;;;;;;2.83;1.97;;;;;;;20.27;50.92;98573.59;5467238;26;20244;-26
2024/04/10 08:43:44;;;;;;;4.00;2.20;;;;;;;20.23;51.94;98583.56;5462375;26;20229;-28
2024/04/10 08:46:12;;;;;;;4.13;2.20;;;;;;;20.21;51.75;98575.81;5465368;26;20229;-31
2024/04/10 08:48:42;;;;;;;2.23;1.80;;;;;;;20.20;52.02;98578.31;5476967;26;20263;-27
2024/04/10 08:51:13;;;;;;;3.43;1.90;;;;;;;20.18;52.22;98580.78;5460803;26;20264;-25
2024/04/10 08:53:43;;;;;;;2.47;2.20;;;;;;;20.20;53.03;98586.84;5486496;26;20236;-29
2024/04/10 08:56:10;;;;;;;3.10;2.00;;;;;;;20.19;53.09;98584.22;5470084;26;20229;-27
2024/04/10 08:58:38;;;;;;;5.23;1.83;;;;;;;20.20;53.17;98597.06;5462157;26;20675;-28
2024/04/10 09:01:06;;;;;;;3.23;2.03;;;;;;;20.22;53.45;98597.13;5465372;26;20218;-27
2024/04/10 09:03:33;;;;;;;2.77;2.00;;;;;;;20.22;53.14;98592.03;5461872;26;20795;-26
2024/04/10 09:06:07;;;;;;;1.70;1.60;;;;;;;20.23;53.34;98587.00;5468845;26;20244;-27
2024/04/10 09:08:34;;;;;;;3.77;1.70;;;;;;;20.23;53.59;98594.66;5461094;26;20229;-26
2024/04/10 09:11:01;;;;;;;2.03;1.73;;;;;;;20.18;53.48;98585.00;5471077;26;20582;-26
2024/04/10 09:13:28;;;;;;;2.53;1.77;;;;;;;20.26;53.30;98604.13;5458408;26;20241;-27
2024/04/10 09:15:59;;;;;;;2.87;1.70;;;;;;;20.25;53.10;98604.94;5459137;26;20268;-26
2024/04/10 09:18:26;;;;;;;3.43;1.73;;;;;;;20.21;53.58;98603.03;5480149;26;20348;-26
2024/04/10 09:21:08;;;;;;;2.47;1.90;;;;;;;20.16;53.80;98594.28;5462289;26;20245;-28
2024/04/10 09:23:35;;;;;;;1.83;1.60;;;;;;;20.16;53.59;98607.88;5465961;26;20229;-26
2024/04/10 09:26:03;;;;;;;2.27;1.70;;;;;;;20.10;53.45;98593.91;5458562;26;20234;-30
2024/04/10 09:28:30;;;;;;;2.20;1.53;;;;;;;20.18;53.62;98613.06;5464844;26;20264;-25
2024/04/10 09:30:57;;;;;;;3.83;1.80;;;;;;;20.17;53.44;98619.88;5466309;26;20649;-25
2024/04/10 09:33:26;;;;;;;2.03;1.40;;;;;;;20.18;53.68;98624.16;5466586;26;20233;-27
2024/04/10 09:35:55;;;;;;;3.33;1.73;;;;;;;20.21;54.12;98633.66;5453971;26;20285;-28
2024/04/10 09:38:23;;;;;;;3.87;2.00;;;;;;;20.08;53.64;98601.50;5484025;26;20267;-28
2024/04/10 09:40:54;;;;;;;6.03;1.83;;;;;;;20.22;54.05;98632.88;5469317;26;20279;-29
2024/04/10 09:43:21;;;;;;;2.43;1.63;;;;;;;20.21;54.00;98637.09;5469728;26;20276;-26
2024/04/10 09:45:48;;;;;;;3.87;1.93;;;;;;;20.25;53.88;98635.59;5471119;26;20233;-32
2024/04/10 09:48:14;;;;;;;6.67;1.80;;;;;;;20.22;53.89;98633.72;5465431;26;20234;-27
2024/04/10 09:50:42;;;;;;;6.20;1.70;;;;;;;20.25;53.82;98635.59;5437166;26;20237;-25
2024/04/10 09:53:09;;;;;;;2.40;1.50;;;;;;;20.22;54.38;98636.28;5480952;26;20233;-26
2024/04/10 09:55:39;;;;;;;3.27;1.60;;;;;;;20.20;53.91;98639.56;5441163;26;20230;-26
2024/04/10 09:58:07;;;;;;;2.87;1.50;;;;;;;20.18;54.45;98633.50;5465627;26;20229;-28
2024/04/10 10:00:34;;;;;;;6.53;1.83;;;;;;;20.17;54.03;98642.84;5468756;26;20230;-26
2024/04/10 10:03:07;;;;;;;3.87;2.00;;;;;;;20.17;53.97;98639.41;5462822;26;20297;-29
2024/04/10 10:05:34;;;;;;;2.80;1.90;;;;;;;20.17;54.65;98632.63;5469445;26;20266;-31
2024/04/10 10:08:13;;;;;;;2.83;1.73;;;;;;;20.18;54.13;98634.38;5461345;26;20229;-26
2024/04/10 10:10:49;;;;;;;4.63;1.77;;;;;;;20.20;54.46;98632.78;5466004;26;20233;-25
2024/04/10 10:13:39;;;;;;;5.20;1.53;;;;;;;20.21;54.56;98637.09;5460134;26;20233;-26
2024/04/10 10:16:05;;;;;;;2.40;1.30;;;;;;;20.21;54.64;98634.53;5464147;26;20736;-26
2024/04/10 10:18:32;;;;;;;3.50;1.80;;;;;;;20.22;54.14;98636.28;5459141;26;20249;-27
2024/04/10 10:21:07;;;;;;;2.40;1.53;;;;;;;20.19;54.52;98625.91;5464026;26;20342;-26
2024/04/10 10:23:35;;;;;;;3.43;1.50;;;;;;;20.25;54.44;98638.13;5468021;26;20343;-37
2024/04/10 10:26:02;;;;;;;2.97;1.63;;;;;;;20.25;53.97;98644.09;5462959;26;20237;-27
2024/04/10 10:28:31;;;;;;;3.43;1.50;;;;;;;20.24;54.57;98644.91;5464737;26;20290;-26
2024/04/10 10:31:24;;;;;;;2.70;1.60;;;;;;;20.20;54.48;98642.13;5488796;26;20769;-28
2024/04/10 10:33:58;;;;;;;2.80;1.50;;;;;;;20.17;54.37;98645.41;5453848;26;20385;-25
2024/04/10 10:36:25;;;;;;;2.93;1.70;;;;;;;20.17;54.39;98652.16;5461406;26;20342;-26
2024/04/10 10:39:02;;;;;;;1.50;1.40;;;;;;;20.17;54.88;98653.06;5482909;26;20225;-28
2024/04/10 10:41:29;;;;;;;2.53;1.53;;;;;;;20.10;54.74;98643.25;5473695;26;21062;-26
2024/04/10 10:43:59;;;;;;;3.17;1.67;;;;;;;20.18;54.38;98651.34;5464066;26;20357;-27
2024/04/10 10:46:28;;;;;;;1.80;1.40;;;;;;;20.19;54.72;98648.03;5480169;26;20790;-28
2024/04/10 10:48:55;;;;;;;1.60;1.47;;;;;;;20.20;54.27;98648.09;5477114;26;20256;-26
2024/04/10 10:51:23;;;;;;;2.30;1.63;;;;;;;20.22;54.54;98643.94;5467993;26;20506;-27
2024/04/10 10:53:50;;;;;;;2.23;1.77;;;;;;;20.25;54.27;98650.91;5466278;26;20317;-27
2024/04/10 10:56:24;;;;;;;3.63;1.73;;;;;;;20.26;52.66;98642.44;5473812;26;20734;-27
2024/04/10 10:58:52;;;;;;;6.50;1.87;;;;;;;20.27;51.06;98650.16;5476012;26;20266;-26
2024/04/10 11:01:19;;;;;;;4.53;2.00;;;;;;;20.30;50.91;98654.53;5472206;26;20246;-31
2024/04/10 11:03:47;;;;;;;4.57;2.27;;;;;;;20.29;51.29;98657.91;5464001;26;20238;-27
2024/04/10 11:06:16;;;;;;;4.03;2.10;;;;;;;20.25;51.52;98668.78;5470493;26;20248;-27
2024/04/10 11:08:42;;;;;;;3.53;1.77;;;;;;;20.22;52.46;98661.81;5453540;26;20326;-27
2024/04/10 11:11:14;;;;;;;4.23;2.27;;;;;;;20.18;52.37;98652.25;5467047;26;20320;-32
2024/04/10 11:13:48;;;;;;;5.33;2.23;;;;;;;20.17;52.90;98670.91;5468150;26;20593;-25
2024/04/10 11:16:25;;;;;;;3.63;1.97;;;;;;;20.16;52.60;98661.47;5464056;26;20763;-26
2024/04/10 11:18:52;;;;;;;5.43;1.83;;;;;;;20.18;53.06;98659.00;5472086;26;20328;-26
2024/04/10 11:21:19;;;;;;;2.93;1.70;;;;;;;20.18;53.25;98662.44;5476038;26;20233;-26
2024/04/10 11:23:46;;;;;;;2.77;1.77;;;;;;;20.20;52.93;98652.31;5466588;26;20274;-26
2024/04/10 11:26:13;;;;;;;3.73;1.70;;;;;;;20.21;53.56;98651.50;5480844;26;20224;-26
2024/04/10 11:28:40;;;;;;;4.33;2.03;;;;;;;20.22;53.04;98650.75;5471417;26;20268;-26
2024/04/10 11:31:07;;;;;;;3.07;1.60;;;;;;;20.23;53.10;98645.72;5452905;26;20229;-27
2024/04/10 11:33:34;;;;;;;1.67;1.57;;;;;;;20.24;53.36;98649.13;5470950;26;20341;-29
2024/04/10 11:36:01;;;;;;;3.40;1.83;;;;;;;20.25;53.48;98646.66;5487522;26;20728;-27
2024/04/10 11:38:28;;;;;;;5.17;2.07;;;;;;;20.27;53.34;98645.06;5479117;26;20548;-27
2024/04/10 11:40:55;;;;;;;3.67;1.80;;;;;;;20.22;53.89;98643.94;5489078;26;20336;-27